logo
Rechercher aéroport 
image banner adimage banner adimage banner ad
image banner ad

LIKD - Torraccia

Situé à Domagnano, San Marino

ICAO - , IATA -

Données fournies par Airmate  

Information générale

Coordonnées: N43°57'0" E12°30'39"
Élévation : 787 feet MSL.
Variation magnétique : 3° East
Voir autres Aéroports à Domagnano

Données opérationnelles

Special qualification required
Heure actuelle UTC:
Heure actuelle locale:
Météo à : LIPR - Rimini/Miramare ( 11 km )
METAR: LIPR 270350Z AUTO VRB01KT 9999 NCD 12/11 Q1018
TAF: TAF LIPR 262300Z 2700/2724 VRB05KT CAVOK BECMG 2711/2713 08012KT BECMG 2722/2724 VRB05KT
Voir NOTAMs / SUP AIP / TFR affectant cet aéroport [VIEW]
Fréquences de communication: [VIEW]

Pistes:

Identifiant RWYQFULongueur (ft)Largeur (ft)SurfaceLDA (ft)
16162°20020GRAS
34342°20020GRAS

Coordonnées de l'aéroport

Adresse: Domagnano San Marino

Vue satellite de LIKD